Time;durP1;ratioP1;P1;durP2;ratioP2;P2;SDS_P1;SDS_P2;PMS_P1;PMS_P2;Temp;Humidity;BMP_temperature;BMP_pressure;BME280_temperature;BME280_humidity;BME280_pressure;Samples;Min_cycle;Max_cycle;Signal;HPM_P1;HPM_P2
2023/07/22 00:00:14;;;;;;;;;;;;;;;;;;4909460;29;19935;-83
2023/07/22 00:02:41;;;;;;;;;;;;;;;;;;4893198;29;19931;-83
2023/07/22 00:05:10;;;;;;;;;;;;;;;;;;4906866;29;19938;-83
2023/07/22 00:07:37;;;;;;;;;;;;;;;;;;4894847;29;19934;-84
2023/07/22 00:10:05;;;;;;;;;;;;;;;;;;4915396;29;20543;-84
2023/07/22 00:12:32;;;;;;;;;;;;;;;;;;4914943;29;20399;-82
2023/07/22 00:15:00;;;;;;;;;;;;;;;;;;4916111;29;19931;-84
2023/07/22 00:17:27;;;;;;;;;;;;;;;;;;4907165;29;20402;-84
2023/07/22 00:19:55;;;;;;;;;;;;;;;;;;4916491;29;19927;-84
2023/07/22 00:22:22;;;;;;;;;;;;;;;;;;4891787;29;19931;-83
2023/07/22 00:24:50;;;;;;;;;;;;;;;;;;4915457;29;20312;-84
2023/07/22 00:27:22;;;;;;;;;;;;;;;;;;4914574;29;19942;-82
2023/07/22 00:29:50;;;;;;;;;;;;;;;;;;4914815;29;20398;-84
2023/07/22 00:32:18;;;;;;;;;;;;;;;;;;4905823;29;19927;-83
2023/07/22 00:34:46;;;;;;;;;;;;;;;;;;4915216;29;19927;-82
2023/07/22 00:37:13;;;;;;;;;;;;;;;;;;4917175;29;19931;-82
2023/07/22 00:39:41;;;;;;;;;;;;;;;;;;4915769;29;19931;-82
2023/07/22 00:42:09;;;;;;;;;;;;;;;;;;4916888;29;19973;-83
2023/07/22 00:44:36;;;;;;;;;;;;;;;;;;4916769;29;19927;-83
2023/07/22 00:47:09;;;;;;;;;;;;;;;;;;4908213;29;19938;-82
2023/07/22 00:49:37;;;;;;;;;;;;;;;;;;4915479;29;19950;-83
2023/07/22 00:52:04;;;;;;;;;;;;;;;;;;4914144;29;19931;-83
2023/07/22 00:54:37;;;;;;;;;;;;;;;;;;4893839;29;19927;-85
2023/07/22 00:57:04;;;;;;;;;;;;;;;;;;4914767;29;19928;-83
2023/07/22 00:59:37;;;;;;;;;;;;;;;;;;4914613;29;19927;-83
2023/07/22 01:02:10;;;;;;;;;;;;;;;;;;4913251;29;19927;-83
2023/07/22 01:04:37;;;;;;;;;;;;;;;;;;4914784;29;19938;-84
2023/07/22 01:07:06;;;;;;;;;;;;;;;;;;4911750;29;19934;-83
2023/07/22 01:09:34;;;;;;;;;;;;;;;;;;4913442;29;19934;-83
2023/07/22 01:12:06;;;;;;;;;;;;;;;;;;4898484;29;19934;-83
2023/07/22 01:14:34;;;;;;;;;;;;;;;;;;4914478;29;19938;-83
2023/07/22 01:17:02;;;;;;;;;;;;;;;;;;4912769;29;19928;-84
2023/07/22 01:19:29;;;;;;;;;;;;;;;;;;4913976;29;19938;-84
2023/07/22 01:22:02;;;;;;;;;;;;;;;;;;4915346;29;19928;-83
2023/07/22 01:24:29;;;;;;;;;;;;;;;;;;4904082;29;19938;-82
2023/07/22 01:27:03;;;;;;;;;;;;;;;;;;4916599;29;19927;-84
2023/07/22 01:29:30;;;;;;;;;;;;;;;;;;4898870;29;19938;-83
2023/07/22 01:32:03;;;;;;;;;;;;;;;;;;4912930;29;19931;-80
2023/07/22 01:34:31;;;;;;;;;;;;;;;;;;4907991;29;20292;-79
2023/07/22 01:37:04;;;;;;;;;;;;;;;;;;4896410;29;19938;-78
2023/07/22 01:39:37;;;;;;;;;;;;;;;;;;4913276;29;19927;-79
2023/07/22 01:42:04;;;;;;;;;;;;;;;;;;4914301;29;19953;-78
2023/07/22 01:44:32;;;;;;;;;;;;;;;;;;4912998;29;19931;-78
2023/07/22 01:46:59;;;;;;;;;;;;;;;;;;4906294;29;20297;-78
2023/07/22 01:49:32;;;;;;;;;;;;;;;;;;4897313;29;19927;-79
2023/07/22 01:52:00;;;;;;;;;;;;;;;;;;4903864;29;19931;-77
2023/07/22 01:54:28;;;;;;;;;;;;;;;;;;4915012;29;20004;-79
2023/07/22 01:57:00;;;;;;;;;;;;;;;;;;4895247;29;19927;-79
2023/07/22 01:59:28;;;;;;;;;;;;;;;;;;4913185;29;19927;-78
2023/07/22 02:02:00;;;;;;;;;;;;;;;;;;4896230;29;21802;-79
2023/07/22 02:04:28;;;;;;;;;;;;;;;;;;4913266;29;20407;-79
2023/07/22 02:07:01;;;;;;;;;;;;;;;;;;4913596;29;19934;-78
2023/07/22 02:09:33;;;;;;;;;;;;;;;;;;4906592;29;20288;-78
2023/07/22 02:12:07;;;;;;;;;;;;;;;;;;4911984;29;19954;-79
2023/07/22 02:14:40;;;;;;;;;;;;;;;;;;4911431;29;19931;-78
2023/07/22 02:17:09;;;;;;;;;;;;;;;;;;4912530;29;19931;-79
2023/07/22 02:19:41;;;;;;;;;;;;;;;;;;4913633;29;19931;-79
2023/07/22 02:22:14;;;;;;;;;;;;;;;;;;4890439;29;19954;-78
2023/07/22 02:24:46;;;;;;;;;;;;;;;;;;4914081;29;19934;-78
2023/07/22 02:27:14;;;;;;;;;;;;;;;;;;4888099;29;19931;-79
2023/07/22 02:29:46;;;;;;;;;;;;;;;;;;4910223;29;20311;-78
2023/07/22 02:32:19;;;;;;;;;;;;;;;;;;4894878;29;19935;-78
2023/07/22 02:34:52;;;;;;;;;;;;;;;;;;4913567;29;20303;-78
2023/07/22 02:37:25;;;;;;;;;;;;;;;;;;4895613;29;19931;-79
2023/07/22 02:39:52;;;;;;;;;;;;;;;;;;4912278;29;19927;-79
2023/07/22 02:42:20;;;;;;;;;;;;;;;;;;4913053;29;19931;-79
2023/07/22 02:44:47;;;;;;;;;;;;;;;;;;4914113;29;19934;-79
2023/07/22 02:47:15;;;;;;;;;;;;;;;;;;4902584;29;20827;-78
2023/07/22 02:49:47;;;;;;;;;;;;;;;;;;4911936;29;19927;-79
2023/07/22 02:52:16;;;;;;;;;;;;;;;;;;4912498;29;19938;-79
2023/07/22 02:54:48;;;;;;;;;;;;;;;;;;4912014;29;19954;-79
2023/07/22 02:57:16;;;;;;;;;;;;;;;;;;4912744;29;19927;-79
2023/07/22 02:59:49;;;;;;;;;;;;;;;;;;4908745;29;19927;-78
2023/07/22 03:02:21;;;;;;;;;;;;;;;;;;4912968;29;19931;-78
2023/07/22 03:04:49;;;;;;;;;;;;;;;;;;4911962;29;19927;-78
2023/07/22 03:07:17;;;;;;;;;;;;;;;;;;4911777;29;19930;-78
2023/07/22 03:09:49;;;;;;;;;;;;;;;;;;4895153;29;19938;-78
2023/07/22 03:12:17;;;;;;;;;;;;;;;;;;4903047;29;20241;-79
2023/07/22 03:14:45;;;;;;;;;;;;;;;;;;4911049;29;19931;-79
2023/07/22 03:17:18;;;;;;;;;;;;;;;;;;4894462;29;20308;-78
2023/07/22 03:19:45;;;;;;;;;;;;;;;;;;4912402;29;19954;-78
2023/07/22 03:22:18;;;;;;;;;;;;;;;;;;4912525;29;19927;-78
2023/07/22 03:24:51;;;;;;;;;;;;;;;;;;4911520;29;19952;-79
2023/07/22 03:27:23;;;;;;;;;;;;;;;;;;4896556;29;20402;-78
2023/07/22 03:29:51;;;;;;;;;;;;;;;;;;4894361;29;20273;-78
2023/07/22 03:32:18;;;;;;;;;;;;;;;;;;4913204;29;19934;-78
2023/07/22 03:34:46;;;;;;;;;;;;;;;;;;4911710;29;19946;-79
2023/07/22 03:37:20;;;;;;;;;;;;;;;;;;4888919;29;19927;-79
2023/07/22 03:39:52;;;;;;;;;;;;;;;;;;4911593;29;20383;-78
2023/07/22 03:42:20;;;;;;;;;;;;;;;;;;4913726;29;19938;-79
2023/07/22 03:44:52;;;;;;;;;;;;;;;;;;4909734;29;19938;-79
2023/07/22 03:47:25;;;;;;;;;;;;;;;;;;4896666;29;19931;-79
2023/07/22 03:49:58;;;;;;;;;;;;;;;;;;4894666;29;20456;-78
2023/07/22 03:52:25;;;;;;;;;;;;;;;;;;4895376;29;19931;-79
2023/07/22 03:54:58;;;;;;;;;;;;;;;;;;4913107;29;19931;-79
2023/07/22 03:57:30;;;;;;;;;;;;;;;;;;4916894;29;19931;-80
2023/07/22 03:59:58;;;;;;;;;;;;;;;;;;4914395;29;19927;-78
2023/07/22 04:02:38;;;;;;;;;;;;;;;;;;4914864;29;20304;-78
2023/07/22 04:05:06;;;;;;;;;;;;;;;;;;4916632;29;20276;-79
2023/07/22 04:07:34;;;;;;;;;;;;;;;;;;4915143;29;19931;-78
2023/07/22 04:10:06;;;;;;;;;;;;;;;;;;4900102;29;19950;-78
2023/07/22 04:12:34;;;;;;;;;;;;;;;;;;4913866;29;19938;-78
2023/07/22 04:15:01;;;;;;;;;;;;;;;;;;4908946;29;20399;-78
2023/07/22 04:17:29;;;;;;;;;;;;;;;;;;4906718;29;19931;-77
2023/07/22 04:19:56;;;;;;;;;;;;;;;;;;4913714;29;20403;-78
2023/07/22 04:22:24;;;;;;;;;;;;;;;;;;4915477;29;19935;-78
2023/07/22 04:24:51;;;;;;;;;;;;;;;;;;4909900;29;19931;-78
2023/07/22 04:27:24;;;;;;;;;;;;;;;;;;4915368;29;19938;-78
2023/07/22 04:29:51;;;;;;;;;;;;;;;;;;4913175;29;19934;-79
2023/07/22 04:32:19;;;;;;;;;;;;;;;;;;4915588;29;19928;-78
2023/07/22 04:34:52;;;;;;;;;;;;;;;;;;4912987;29;19935;-78
2023/07/22 04:37:19;;;;;;;;;;;;;;;;;;4913723;29;19931;-78
2023/07/22 04:39:52;;;;;;;;;;;;;;;;;;4915565;29;19934;-79
2023/07/22 04:42:25;;;;;;;;;;;;;;;;;;4911753;29;19931;-78
2023/07/22 04:44:58;;;;;;;;;;;;;;;;;;4914302;29;20399;-77
2023/07/22 04:47:25;;;;;;;;;;;;;;;;;;4913475;29;20397;-79
2023/07/22 04:49:53;;;;;;;;;;;;;;;;;;4914635;29;19931;-79
2023/07/22 04:52:25;;;;;;;;;;;;;;;;;;4916060;29;20304;-80
2023/07/22 04:54:58;;;;;;;;;;;;;;;;;;4914163;29;19928;-79
2023/07/22 04:57:30;;;;;;;;;;;;;;;;;;4914696;29;20284;-78
2023/07/22 04:59:58;;;;;;;;;;;;;;;;;;4912307;29;19927;-79
2023/07/22 05:02:25;;;;;;;;;;;;;;;;;;4895783;29;19931;-79
2023/07/22 05:04:53;;;;;;;;;;;;;;;;;;4899502;29;20562;-80
2023/07/22 05:07:21;;;;;;;;;;;;;;;;;;4905653;29;19954;-79
2023/07/22 05:09:54;;;;;;;;;;;;;;;;;;4912459;29;19927;-80
2023/07/22 05:12:26;;;;;;;;;;;;;;;;;;4893370;29;19931;-79
2023/07/22 05:14:54;;;;;;;;;;;;;;;;;;4914217;29;19931;-78
2023/07/22 05:17:29;;;;;;;;;;;;;;;;;;4913179;29;20400;-78
2023/07/22 05:19:56;;;;;;;;;;;;;;;;;;4914154;29;20774;-80
2023/07/22 05:22:24;;;;;;;;;;;;;;;;;;4912835;29;19928;-78
2023/07/22 05:24:52;;;;;;;;;;;;;;;;;;4914146;29;19938;-79
2023/07/22 05:27:24;;;;;;;;;;;;;;;;;;4911777;29;19928;-79
2023/07/22 05:29:57;;;;;;;;;;;;;;;;;;4895598;29;20383;-76
2023/07/22 05:32:24;;;;;;;;;;;;;;;;;;4912063;29;19950;-77
2023/07/22 05:34:57;;;;;;;;;;;;;;;;;;4914411;29;19938;-81
2023/07/22 05:37:29;;;;;;;;;;;;;;;;;;4914393;29;19958;-79
2023/07/22 05:39:57;;;;;;;;;;;;;;;;;;4915481;29;20353;-80
2023/07/22 05:42:29;;;;;;;;;;;;;;;;;;4894678;29;19938;-79
2023/07/22 05:45:02;;;;;;;;;;;;;;;;;;4914781;29;19931;-79
2023/07/22 05:47:29;;;;;;;;;;;;;;;;;;4914206;29;19927;-77
2023/07/22 05:50:03;;;;;;;;;;;;;;;;;;4903074;29;19934;-77
2023/07/22 05:52:36;;;;;;;;;;;;;;;;;;4913597;29;19942;-77
2023/07/22 05:55:09;;;;;;;;;;;;;;;;;;4903878;29;19927;-78
2023/07/22 05:57:36;;;;;;;;;;;;;;;;;;4911830;29;19935;-75
2023/07/22 06:00:04;;;;;;;;;;;;;;;;;;4894024;29;19936;-74
2023/07/22 06:02:38;;;;;;;;;;;;;;;;;;4916953;29;19931;-78
2023/07/22 06:05:06;;;;;;;;;;;;;;;;;;4913299;29;19935;-75
2023/07/22 06:07:33;;;;;;;;;;;;;;;;;;4911418;29;19938;-75
2023/07/22 06:10:01;;;;;;;;;;;;;;;;;;4913440;29;20386;-78
2023/07/22 06:12:28;;;;;;;;;;;;;;;;;;4911763;29;19946;-75
2023/07/22 06:14:56;;;;;;;;;;;;;;;;;;4914149;29;19935;-74
2023/07/22 06:17:29;;;;;;;;;;;;;;;;;;4911320;29;19928;-75
2023/07/22 06:19:56;;;;;;;;;;;;;;;;;;4912852;29;19935;-76
2023/07/22 06:22:24;;;;;;;;;;;;;;;;;;4913119;29;19927;-76
2023/07/22 06:24:51;;;;;;;;;;;;;;;;;;4912854;29;19931;-76
2023/07/22 06:27:24;;;;;;;;;;;;;;;;;;4913833;29;19927;-75
2023/07/22 06:29:52;;;;;;;;;;;;;;;;;;4912851;29;19939;-78
2023/07/22 06:32:19;;;;;;;;;;;;;;;;;;4910637;29;19927;-75
2023/07/22 06:34:47;;;;;;;;;;;;;;;;;;4911172;29;19935;-76
2023/07/22 06:37:14;;;;;;;;;;;;;;;;;;4914544;29;19927;-76
2023/07/22 06:39:42;;;;;;;;;;;;;;;;;;4911107;29;20403;-77
2023/07/22 06:42:14;;;;;;;;;;;;;;;;;;4911459;29;19934;-76
2023/07/22 06:44:47;;;;;;;;;;;;;;;;;;4913242;29;19935;-76
2023/07/22 06:47:14;;;;;;;;;;;;;;;;;;4913537;29;20395;-77
2023/07/22 06:49:42;;;;;;;;;;;;;;;;;;4902572;29;19931;-75
2023/07/22 06:52:09;;;;;;;;;;;;;;;;;;4912166;29;19927;-75
2023/07/22 06:54:42;;;;;;;;;;;;;;;;;;4912641;29;19938;-75
2023/07/22 06:57:14;;;;;;;;;;;;;;;;;;4914129;29;19927;-75
2023/07/22 06:59:42;;;;;;;;;;;;;;;;;;4895303;29;19938;-76
2023/07/22 07:02:10;;;;;;;;;;;;;;;;;;4910489;29;20562;-75
2023/07/22 07:04:37;;;;;;;;;;;;;;;;;;4902142;29;19942;-76
2023/07/22 07:07:05;;;;;;;;;;;;;;;;;;4911242;29;19927;-75
2023/07/22 07:09:32;;;;;;;;;;;;;;;;;;4906246;29;19931;-77
2023/07/22 07:12:00;;;;;;;;;;;;;;;;;;4913030;29;19927;-74
2023/07/22 07:14:27;;;;;;;;;;;;;;;;;;4910041;29;19936;-77
2023/07/22 07:17:00;;;;;;;;;;;;;;;;;;4912738;29;19927;-75
2023/07/22 07:19:32;;;;;;;;;;;;;;;;;;4896393;29;19950;-75
2023/07/22 07:22:00;;;;;;;;;;;;;;;;;;4912245;29;19927;-75
2023/07/22 07:24:28;;;;;;;;;;;;;;;;;;4889858;29;19943;-75
2023/07/22 07:27:00;;;;;;;;;;;;;;;;;;4911662;29;19954;-75
2023/07/22 07:29:33;;;;;;;;;;;;;;;;;;4912293;29;19946;-75
2023/07/22 07:32:01;;;;;;;;;;;;;;;;;;4917649;29;19927;-75
2023/07/22 07:34:28;;;;;;;;;;;;;;;;;;4916113;29;19927;-77
2023/07/22 07:36:56;;;;;;;;;;;;;;;;;;4915824;29;19931;-75
2023/07/22 07:39:29;;;;;;;;;;;;;;;;;;4901957;29;19954;-75
2023/07/22 07:42:01;;;;;;;;;;;;;;;;;;4917620;29;19927;-75
2023/07/22 07:44:34;;;;;;;;;;;;;;;;;;4915213;29;19935;-74
2023/07/22 07:47:06;;;;;;;;;;;;;;;;;;4914954;29;19927;-75
2023/07/22 07:49:40;;;;;;;;;;;;;;;;;;4916854;29;19928;-75
2023/07/22 07:52:12;;;;;;;;;;;;;;;;;;4913759;29;19938;-75
2023/07/22 07:54:40;;;;;;;;;;;;;;;;;;4914133;29;19931;-75
2023/07/22 07:57:08;;;;;;;;;;;;;;;;;;4913672;29;20524;-77
2023/07/22 07:59:35;;;;;;;;;;;;;;;;;;4899977;29;19931;-77
2023/07/22 08:02:08;;;;;;;;;;;;;;;;;;4914907;29;19931;-77
2023/07/22 08:04:36;;;;;;;;;;;;;;;;;;4910642;29;20393;-75
2023/07/22 08:07:04;;;;;;;;;;;;;;;;;;4913548;29;20283;-75
2023/07/22 08:09:32;;;;;;;;;;;;;;;;;;4913938;29;19931;-76
2023/07/22 08:11:59;;;;;;;;;;;;;;;;;;4915740;29;20307;-77
2023/07/22 08:14:27;;;;;;;;;;;;;;;;;;4914950;29;19927;-75
2023/07/22 08:16:59;;;;;;;;;;;;;;;;;;4914260;29;21212;-75
2023/07/22 08:19:27;;;;;;;;;;;;;;;;;;4914327;29;20380;-77
2023/07/22 08:21:54;;;;;;;;;;;;;;;;;;4915637;29;19927;-76
2023/07/22 08:24:27;;;;;;;;;;;;;;;;;;4915180;29;19992;-75
2023/07/22 08:26:54;;;;;;;;;;;;;;;;;;4915030;29;19931;-76
2023/07/22 08:29:27;;;;;;;;;;;;;;;;;;4913557;29;19934;-77
2023/07/22 08:31:54;;;;;;;;;;;;;;;;;;4914411;29;19931;-75
2023/07/22 08:34:22;;;;;;;;;;;;;;;;;;4897844;29;19938;-76
2023/07/22 08:36:55;;;;;;;;;;;;;;;;;;4916578;29;19928;-75
2023/07/22 08:39:27;;;;;;;;;;;;;;;;;;4914574;29;19931;-76
2023/07/22 08:41:55;;;;;;;;;;;;;;;;;;4914980;29;19934;-77
2023/07/22 08:44:22;;;;;;;;;;;;;;;;;;4914263;29;20393;-78
2023/07/22 08:46:50;;;;;;;;;;;;;;;;;;4914592;29;19934;-75
2023/07/22 08:49:22;;;;;;;;;;;;;;;;;;4895823;29;20516;-78
2023/07/22 08:51:50;;;;;;;;;;;;;;;;;;4914148;29;19927;-76
2023/07/22 08:54:17;;;;;;;;;;;;;;;;;;4913678;29;20021;-76
2023/07/22 08:56:51;;;;;;;;;;;;;;;;;;4913013;29;19958;-74
2023/07/22 08:59:18;;;;;;;;;;;;;;;;;;4914405;29;20768;-76
2023/07/22 09:01:46;;;;;;;;;;;;;;;;;;4911128;29;19939;-75
2023/07/22 09:04:19;;;;;;;;;;;;;;;;;;4914935;29;19935;-77
2023/07/22 09:06:46;;;;;;;;;;;;;;;;;;4913570;29;20284;-76
2023/07/22 09:09:15;;;;;;;;;;;;;;;;;;4912703;29;20384;-76
2023/07/22 09:11:42;;;;;;;;;;;;;;;;;;4911206;29;19938;-76
2023/07/22 09:14:10;;;;;;;;;;;;;;;;;;4911946;29;19950;-75
2023/07/22 09:16:39;;;;;;;;;;;;;;;;;;4895751;29;20406;-75
2023/07/22 09:19:07;;;;;;;;;;;;;;;;;;4913549;29;20004;-76
2023/07/22 09:21:36;;;;;;;;;;;;;;;;;;4913883;29;19942;-75
2023/07/22 09:24:04;;;;;;;;;;;;;;;;;;4915576;29;19931;-76
2023/07/22 09:26:31;;;;;;;;;;;;;;;;;;4911710;29;19931;-76
2023/07/22 09:29:04;;;;;;;;;;;;;;;;;;4914022;29;19931;-76
2023/07/22 09:31:32;;;;;;;;;;;;;;;;;;4913282;29;20372;-77
2023/07/22 09:34:00;;;;;;;;;;;;;;;;;;4912357;29;20291;-75
2023/07/22 09:36:28;;;;;;;;;;;;;;;;;;4897598;29;19931;-75
2023/07/22 09:39:01;;;;;;;;;;;;;;;;;;4913130;29;19931;-77
2023/07/22 09:41:28;;;;;;;;;;;;;;;;;;4908170;29;19938;-78
2023/07/22 09:43:56;;;;;;;;;;;;;;;;;;4910396;29;19931;-77
2023/07/22 09:46:29;;;;;;;;;;;;;;;;;;4909489;29;20499;-77
2023/07/22 09:48:56;;;;;;;;;;;;;;;;;;4913189;29;19943;-75
2023/07/22 09:51:24;;;;;;;;;;;;;;;;;;4911700;29;20292;-78
2023/07/22 09:53:51;;;;;;;;;;;;;;;;;;4911370;29;19927;-77
2023/07/22 09:56:19;;;;;;;;;;;;;;;;;;4913258;29;20315;-78
2023/07/22 09:58:46;;;;;;;;;;;;;;;;;;4912212;29;19934;-78
2023/07/22 10:01:14;;;;;;;;;;;;;;;;;;4913434;29;20300;-76
2023/07/22 10:03:41;;;;;;;;;;;;;;;;;;4913461;29;19931;-77
2023/07/22 10:06:09;;;;;;;;;;;;;;;;;;4911838;29;20312;-77
2023/07/22 10:08:43;;;;;;;;;;;;;;;;;;4895727;29;19931;-77
2023/07/22 10:11:15;;;;;;;;;;;;;;;;;;4906728;29;19927;-76
2023/07/22 10:13:48;;;;;;;;;;;;;;;;;;4894440;29;20407;-78
2023/07/22 10:16:16;;;;;;;;;;;;;;;;;;4910425;29;20312;-77
2023/07/22 10:18:44;;;;;;;;;;;;;;;;;;4911252;29;19931;-78
2023/07/22 10:21:12;;;;;;;;;;;;;;;;;;4913631;29;19927;-76
2023/07/22 10:23:45;;;;;;;;;;;;;;;;;;4913944;29;19927;-75
2023/07/22 10:26:13;;;;;;;;;;;;;;;;;;4913647;29;19931;-76
2023/07/22 10:28:42;;;;;;;;;;;;;;;;;;4911203;29;20372;-78
2023/07/22 10:31:09;;;;;;;;;;;;;;;;;;4909513;29;19942;-79
2023/07/22 10:33:39;;;;;;;;;;;;;;;;;;4910594;29;20400;-76
2023/07/22 10:36:12;;;;;;;;;;;;;;;;;;4918115;29;19927;-75
2023/07/22 10:38:44;;;;;;;;;;;;;;;;;;4912469;29;19931;-78
2023/07/22 10:41:12;;;;;;;;;;;;;;;;;;4913442;29;19927;-77
2023/07/22 10:43:40;;;;;;;;;;;;;;;;;;4913388;29;19935;-76
2023/07/22 10:46:08;;;;;;;;;;;;;;;;;;4913420;29;20299;-76
2023/07/22 10:48:36;;;;;;;;;;;;;;;;;;4901875;29;20296;-77
2023/07/22 10:51:03;;;;;;;;;;;;;;;;;;4913330;29;19942;-76
2023/07/22 10:53:36;;;;;;;;;;;;;;;;;;4914263;29;20360;-78
2023/07/22 10:56:08;;;;;;;;;;;;;;;;;;4896706;29;19950;-78
2023/07/22 10:58:36;;;;;;;;;;;;;;;;;;4912321;29;19931;-76
2023/07/22 11:01:03;;;;;;;;;;;;;;;;;;4895869;29;19939;-77
2023/07/22 11:03:36;;;;;;;;;;;;;;;;;;4912495;29;20392;-76
2023/07/22 11:06:09;;;;;;;;;;;;;;;;;;4915029;29;20380;-77
2023/07/22 11:08:36;;;;;;;;;;;;;;;;;;4912697;29;19928;-76
2023/07/22 11:11:04;;;;;;;;;;;;;;;;;;4914906;29;20438;-76
2023/07/22 11:13:36;;;;;;;;;;;;;;;;;;4915342;29;19927;-75
2023/07/22 11:16:04;;;;;;;;;;;;;;;;;;4916580;29;19931;-76
2023/07/22 11:18:37;;;;;;;;;;;;;;;;;;4915326;29;19934;-75
2023/07/22 11:21:04;;;;;;;;;;;;;;;;;;4899255;29;19931;-77
2023/07/22 11:23:32;;;;;;;;;;;;;;;;;;4915144;29;19935;-75
2023/07/22 11:26:05;;;;;;;;;;;;;;;;;;4893370;29;19931;-77
2023/07/22 11:28:32;;;;;;;;;;;;;;;;;;4916131;29;20743;-74
2023/07/22 11:31:00;;;;;;;;;;;;;;;;;;4918049;29;19927;-76
2023/07/22 11:33:33;;;;;;;;;;;;;;;;;;4915129;29;19927;-75
2023/07/22 11:36:06;;;;;;;;;;;;;;;;;;4915910;29;19943;-79
2023/07/22 11:38:38;;;;;;;;;;;;;;;;;;4915019;29;19931;-78
2023/07/22 11:41:06;;;;;;;;;;;;;;;;;;4915366;29;20307;-77
2023/07/22 11:43:33;;;;;;;;;;;;;;;;;;4915813;29;19927;-80
2023/07/22 11:46:01;;;;;;;;;;;;;;;;;;4914318;29;20675;-79
2023/07/22 11:48:33;;;;;;;;;;;;;;;;;;4916270;29;19927;-78
2023/07/22 11:51:01;;;;;;;;;;;;;;;;;;4914029;29;19934;-77
2023/07/22 11:53:34;;;;;;;;;;;;;;;;;;4913762;29;20017;-77
2023/07/22 11:56:01;;;;;;;;;;;;;;;;;;4908635;29;19935;-76
2023/07/22 11:58:30;;;;;;;;;;;;;;;;;;4908945;29;20890;-74
2023/07/22 12:00:58;;;;;;;;;;;;;;;;;;4911156;29;20400;-75
2023/07/22 12:03:30;;;;;;;;;;;;;;;;;;4909246;29;19938;-75
2023/07/22 12:05:58;;;;;;;;;;;;;;;;;;4908495;29;19927;-75
2023/07/22 12:08:25;;;;;;;;;;;;;;;;;;4912625;29;19965;-75
2023/07/22 12:10:53;;;;;;;;;;;;;;;;;;4910179;29;19934;-75
2023/07/22 12:13:20;;;;;;;;;;;;;;;;;;4908223;29;19931;-75
2023/07/22 12:15:53;;;;;;;;;;;;;;;;;;4913052;29;19931;-74
2023/07/22 12:18:20;;;;;;;;;;;;;;;;;;4914294;29;19927;-74
2023/07/22 12:20:53;;;;;;;;;;;;;;;;;;4913623;29;19935;-76
2023/07/22 12:23:21;;;;;;;;;;;;;;;;;;4915879;29;19934;-75
2023/07/22 12:25:49;;;;;;;;;;;;;;;;;;4912159;29;19927;-76
2023/07/22 12:28:16;;;;;;;;;;;;;;;;;;4915486;29;19998;-76
2023/07/22 12:30:44;;;;;;;;;;;;;;;;;;4916478;29;19927;-75
2023/07/22 12:33:11;;;;;;;;;;;;;;;;;;4915640;29;20368;-74
2023/07/22 12:35:39;;;;;;;;;;;;;;;;;;4913949;29;19950;-75
2023/07/22 12:38:06;;;;;;;;;;;;;;;;;;4917221;29;19927;-74
2023/07/22 12:40:34;;;;;;;;;;;;;;;;;;4912954;29;19931;-75
2023/07/22 12:43:07;;;;;;;;;;;;;;;;;;4895734;29;19931;-75
2023/07/22 12:45:35;;;;;;;;;;;;;;;;;;4914679;29;19938;-76
2023/07/22 12:48:08;;;;;;;;;;;;;;;;;;4909654;29;19934;-74
2023/07/22 12:50:41;;;;;;;;;;;;;;;;;;4912145;29;19931;-75
2023/07/22 12:53:14;;;;;;;;;;;;;;;;;;4915207;29;20403;-74
2023/07/22 12:55:41;;;;;;;;;;;;;;;;;;4913395;29;20372;-74
2023/07/22 12:58:10;;;;;;;;;;;;;;;;;;4914118;29;19927;-77
2023/07/22 13:00:38;;;;;;;;;;;;;;;;;;4891578;29;19934;-76
2023/07/22 13:03:05;;;;;;;;;;;;;;;;;;4907469;29;19938;-76
2023/07/22 13:05:38;;;;;;;;;;;;;;;;;;4909854;29;20292;-75
2023/07/22 13:08:05;;;;;;;;;;;;;;;;;;4896984;29;19938;-74
2023/07/22 13:10:38;;;;;;;;;;;;;;;;;;4911921;29;19932;-74
2023/07/22 13:13:06;;;;;;;;;;;;;;;;;;4906948;29;20299;-78
2023/07/22 13:15:38;;;;;;;;;;;;;;;;;;4912153;29;19927;-77
2023/07/22 13:18:07;;;;;;;;;;;;;;;;;;4913706;29;20390;-79
2023/07/22 13:20:34;;;;;;;;;;;;;;;;;;4914217;29;19931;-80
2023/07/22 13:23:07;;;;;;;;;;;;;;;;;;4912752;29;19927;-77
2023/07/22 13:25:34;;;;;;;;;;;;;;;;;;4909172;29;20363;-79
2023/07/22 13:28:02;;;;;;;;;;;;;;;;;;4910341;29;19941;-78
2023/07/22 13:30:30;;;;;;;;;;;;;;;;;;4910976;29;19931;-79
2023/07/22 13:32:58;;;;;;;;;;;;;;;;;;4908677;29;19975;-77
2023/07/22 13:35:25;;;;;;;;;;;;;;;;;;4887858;29;20419;-78
2023/07/22 13:37:58;;;;;;;;;;;;;;;;;;4900721;29;19935;-79
2023/07/22 13:40:25;;;;;;;;;;;;;;;;;;4896663;29;19938;-80
2023/07/22 13:42:53;;;;;;;;;;;;;;;;;;4889409;29;19936;-79
2023/07/22 13:45:20;;;;;;;;;;;;;;;;;;4880731;29;19931;-78
2023/07/22 13:47:53;;;;;;;;;;;;;;;;;;4881551;29;19935;-80
2023/07/22 13:50:21;;;;;;;;;;;;;;;;;;4886204;29;19935;-81
2023/07/22 13:52:48;;;;;;;;;;;;;;;;;;4883028;29;19946;-79
2023/07/22 13:55:21;;;;;;;;;;;;;;;;;;4872022;29;19938;-78
2023/07/22 13:57:48;;;;;;;;;;;;;;;;;;4885869;29;19998;-77
2023/07/22 14:00:16;;;;;;;;;;;;;;;;;;4863055;29;19930;-78
2023/07/22 14:02:49;;;;;;;;;;;;;;;;;;4872745;29;19939;-77
2023/07/22 14:05:16;;;;;;;;;;;;;;;;;;4879797;29;19935;-80
2023/07/22 14:07:49;;;;;;;;;;;;;;;;;;4884507;29;20628;-78
2023/07/22 14:10:21;;;;;;;;;;;;;;;;;;4883413;29;19942;-77
2023/07/22 14:12:54;;;;;;;;;;;;;;;;;;4868529;29;19942;-77
2023/07/22 14:15:26;;;;;;;;;;;;;;;;;;4860519;29;19936;-78
2023/07/22 14:17:59;;;;;;;;;;;;;;;;;;4884905;29;19954;-79
2023/07/22 14:20:30;;;;;;;;;;;;;;;;;;4881950;29;19966;-80
2023/07/22 14:22:57;;;;;;;;;;;;;;;;;;4880653;29;19931;-80
2023/07/22 14:25:30;;;;;;;;;;;;;;;;;;4885275;29;19946;-77
2023/07/22 14:27:57;;;;;;;;;;;;;;;;;;4877499;29;19935;-76
2023/07/22 14:30:30;;;;;;;;;;;;;;;;;;4886323;29;20630;-79
2023/07/22 14:33:02;;;;;;;;;;;;;;;;;;4880135;29;20586;-78
2023/07/22 14:35:35;;;;;;;;;;;;;;;;;;4881622;29;19955;-80
2023/07/22 14:38:08;;;;;;;;;;;;;;;;;;4890096;29;19935;-80
2023/07/22 14:40:40;;;;;;;;;;;;;;;;;;4891324;29;19931;-77
2023/07/22 14:43:08;;;;;;;;;;;;;;;;;;4877939;29;19942;-77
2023/07/22 14:45:35;;;;;;;;;;;;;;;;;;4880322;29;19939;-77
2023/07/22 14:48:08;;;;;;;;;;;;;;;;;;4880850;29;20689;-77
2023/07/22 14:50:41;;;;;;;;;;;;;;;;;;4883878;29;20307;-77
2023/07/22 14:53:13;;;;;;;;;;;;;;;;;;4859748;29;19977;-77
2023/07/22 14:55:41;;;;;;;;;;;;;;;;;;4881813;29;19947;-77
2023/07/22 14:58:14;;;;;;;;;;;;;;;;;;4886865;29;19935;-77
2023/07/22 15:00:46;;;;;;;;;;;;;;;;;;4881484;29;19935;-79
2023/07/22 15:03:14;;;;;;;;;;;;;;;;;;4888911;29;20551;-79
2023/07/22 15:05:46;;;;;;;;;;;;;;;;;;4884359;29;19939;-80
2023/07/22 15:08:19;;;;;;;;;;;;;;;;;;4878343;29;19939;-79
2023/07/22 15:10:46;;;;;;;;;;;;;;;;;;4883349;29;19957;-79
2023/07/22 15:13:19;;;;;;;;;;;;;;;;;;4892057;29;19942;-77
2023/07/22 15:15:46;;;;;;;;;;;;;;;;;;4884274;29;20660;-77
2023/07/22 15:18:14;;;;;;;;;;;;;;;;;;4882830;29;19948;-77
2023/07/22 15:20:47;;;;;;;;;;;;;;;;;;4869421;29;19942;-76
2023/07/22 15:23:19;;;;;;;;;;;;;;;;;;4887802;29;19931;-76
2023/07/22 15:25:52;;;;;;;;;;;;;;;;;;4882743;29;20600;-77
2023/07/22 15:28:20;;;;;;;;;;;;;;;;;;4883238;29;19931;-77
2023/07/22 15:30:53;;;;;;;;;;;;;;;;;;4886913;29;19935;-77
2023/07/22 15:33:26;;;;;;;;;;;;;;;;;;4875101;29;19942;-77
2023/07/22 15:35:59;;;;;;;;;;;;;;;;;;4888195;29;20749;-77
2023/07/22 15:38:26;;;;;;;;;;;;;;;;;;4887338;29;20411;-77
2023/07/22 15:40:59;;;;;;;;;;;;;;;;;;4888304;29;19942;-77
2023/07/22 15:43:32;;;;;;;;;;;;;;;;;;4883206;29;19939;-77
2023/07/22 15:46:04;;;;;;;;;;;;;;;;;;4891340;29;20372;-78
2023/07/22 15:48:32;;;;;;;;;;;;;;;;;;4884396;29;19937;-79
2023/07/22 15:51:04;;;;;;;;;;;;;;;;;;4889754;29;19942;-79
2023/07/22 15:53:37;;;;;;;;;;;;;;;;;;4878213;29;19943;-80
2023/07/22 15:56:04;;;;;;;;;;;;;;;;;;4883953;29;19958;-79
2023/07/22 15:58:32;;;;;;;;;;;;;;;;;;4866041;29;19935;-76
2023/07/22 16:01:04;;;;;;;;;;;;;;;;;;4894271;29;20384;-77
2023/07/22 16:03:37;;;;;;;;;;;;;;;;;;4882363;29;19935;-77
2023/07/22 16:06:10;;;;;;;;;;;;;;;;;;4880858;29;19935;-76
2023/07/22 16:08:37;;;;;;;;;;;;;;;;;;4876704;29;19955;-76
2023/07/22 16:11:05;;;;;;;;;;;;;;;;;;4876514;29;19951;-77
2023/07/22 16:13:33;;;;;;;;;;;;;;;;;;4883634;29;19935;-77
2023/07/22 16:16:05;;;;;;;;;;;;;;;;;;4886886;29;19935;-76
2023/07/22 16:18:33;;;;;;;;;;;;;;;;;;4866391;29;19935;-76
2023/07/22 16:21:05;;;;;;;;;;;;;;;;;;4886133;29;19935;-77
2023/07/22 16:23:33;;;;;;;;;;;;;;;;;;4873156;29;19935;-76
2023/07/22 16:26:05;;;;;;;;;;;;;;;;;;4885818;29;19943;-77
2023/07/22 16:28:33;;;;;;;;;;;;;;;;;;4891724;29;19938;-76
2023/07/22 16:31:08;;;;;;;;;;;;;;;;;;4890340;29;19939;-77
2023/07/22 16:33:36;;;;;;;;;;;;;;;;;;4890842;29;19935;-78
2023/07/22 16:36:08;;;;;;;;;;;;;;;;;;4879243;29;20234;-78
2023/07/22 16:38:36;;;;;;;;;;;;;;;;;;4878117;29;19951;-79
2023/07/22 16:41:03;;;;;;;;;;;;;;;;;;4878551;29;20384;-79
2023/07/22 16:43:32;;;;;;;;;;;;;;;;;;4880048;29;19942;-79
2023/07/22 16:45:59;;;;;;;;;;;;;;;;;;4883699;29;19942;-79
2023/07/22 16:48:32;;;;;;;;;;;;;;;;;;4882778;29;19942;-79
2023/07/22 16:51:05;;;;;;;;;;;;;;;;;;4890013;29;19935;-79
2023/07/22 16:53:37;;;;;;;;;;;;;;;;;;4885076;29;19935;-79
2023/07/22 16:56:10;;;;;;;;;;;;;;;;;;4885143;29;20073;-79
2023/07/22 16:58:42;;;;;;;;;;;;;;;;;;4885554;29;19942;-79
2023/07/22 17:01:10;;;;;;;;;;;;;;;;;;4892633;29;19935;-79